Terminal Aerodrome Forecast
Issued by NWS

Home | Current Version | Previous Version | Text Only | Print | Product List | Glossary On
Versions: 1 2 3 4 5 6 7 8 9 10 11 12 13 14
000
FTUS43 KGLD 221700
TAFMCK
TAF
KMCK 221720Z 2218/2318 17020G30KT P6SM SCT120
     FM230300 15020G30KT P6SM VCTS SCT090CB BKN150
     FM230900 15020G30KT P6SM SCT100 BKN200
     FM231500 20020G30KT P6SM SCT250=

USA.gov is the U.S. government's official web portal to all federal, state and local government web resources and services.